createdAt,value
2023-04-24T00:00:25.969Z,12.88
2023-04-24T00:02:58.235Z,12.87
2023-04-24T00:05:27.834Z,12.84
2023-04-24T00:07:56.341Z,12.82
2023-04-24T00:10:24.198Z,12.81
2023-04-24T00:12:52.029Z,12.81
2023-04-24T00:15:19.863Z,12.80
2023-04-24T00:17:48.004Z,12.77
2023-04-24T00:20:15.909Z,12.77
2023-04-24T00:22:45.060Z,12.77
2023-04-24T00:25:12.927Z,12.75
2023-04-24T00:27:40.693Z,12.74
2023-04-24T00:30:09.567Z,12.74
2023-04-24T00:32:37.443Z,12.72
2023-04-24T00:35:06.780Z,12.72
2023-04-24T00:37:34.594Z,12.70
2023-04-24T00:40:04.398Z,12.70
2023-04-24T00:42:32.613Z,12.67
2023-04-24T00:45:01.259Z,12.66
2023-04-24T00:47:29.110Z,12.64
2023-04-24T00:49:57.166Z,12.61
2023-04-24T00:52:25.322Z,12.59
2023-04-24T00:54:53.316Z,12.57
2023-04-24T00:57:24.641Z,12.56
2023-04-24T00:59:52.788Z,12.53
2023-04-24T01:02:21.678Z,12.48
2023-04-24T01:04:51.777Z,12.47
2023-04-24T01:07:22.066Z,12.45
2023-04-24T01:09:53.167Z,12.40
2023-04-24T01:12:22.431Z,12.40
2023-04-24T01:14:50.247Z,12.36
2023-04-24T01:17:18.165Z,12.34
2023-04-24T01:19:46.800Z,12.33
2023-04-24T01:22:17.268Z,12.32
2023-04-24T01:24:45.250Z,12.28
2023-04-24T01:27:14.281Z,12.25
2023-04-24T01:29:42.726Z,12.21
2023-04-24T01:32:11.694Z,12.18
2023-04-24T01:34:40.522Z,12.13
2023-04-24T01:37:08.353Z,12.10
2023-04-24T01:39:37.544Z,12.08
2023-04-24T01:42:06.902Z,12.02
2023-04-24T01:44:35.948Z,11.98
2023-04-24T01:47:05.610Z,11.94
2023-04-24T01:49:34.764Z,11.91
2023-04-24T01:52:02.588Z,11.87
2023-04-24T01:54:32.325Z,11.85
2023-04-24T01:57:03.028Z,11.85
2023-04-24T01:59:31.971Z,11.83
2023-04-24T02:01:59.873Z,11.82
2023-04-24T02:04:27.759Z,11.80
2023-04-24T02:06:55.936Z,11.80
2023-04-24T02:09:23.838Z,11.80
2023-04-24T02:11:52.311Z,11.80
2023-04-24T02:14:21.584Z,11.81
2023-04-24T02:16:49.483Z,11.79
2023-04-24T02:19:17.449Z,11.79
2023-04-24T02:21:45.242Z,11.79
2023-04-24T02:24:13.124Z,11.79
2023-04-24T02:26:41.237Z,11.80
2023-04-24T02:29:09.162Z,11.80
2023-04-24T02:31:38.425Z,11.83
2023-04-24T02:34:06.668Z,11.79
2023-04-24T02:36:34.653Z,11.80
2023-04-24T02:39:04.581Z,11.79
2023-04-24T02:41:33.861Z,11.78
2023-04-24T02:44:01.630Z,11.79
2023-04-24T02:46:29.511Z,11.77
2023-04-24T02:48:58.777Z,11.80
2023-04-24T02:51:26.615Z,11.78
2023-04-24T02:53:54.465Z,11.78
2023-04-24T02:56:22.298Z,11.78
2023-04-24T02:58:50.165Z,11.78
2023-04-24T03:01:18.924Z,11.77
2023-04-24T03:03:47.008Z,11.76
2023-04-24T03:06:16.533Z,11.77
2023-04-24T03:08:44.375Z,11.75
2023-04-24T03:11:12.743Z,11.76
2023-04-24T03:13:40.668Z,11.76
2023-04-24T03:16:08.460Z,11.76
2023-04-24T03:18:36.372Z,11.76
2023-04-24T03:21:05.564Z,11.74
2023-04-24T03:23:35.394Z,11.76
2023-04-24T03:26:03.517Z,11.74
2023-04-24T03:28:32.245Z,11.72
2023-04-24T03:31:05.121Z,11.72
2023-04-24T03:33:37.306Z,11.70
2023-04-24T03:36:06.439Z,11.68
2023-04-24T03:38:42.208Z,11.68
2023-04-24T03:41:39.172Z,11.64
2023-04-24T03:44:17.508Z,11.63
2023-04-24T03:46:46.130Z,11.63
2023-04-24T03:49:14.008Z,11.61
2023-04-24T03:51:45.075Z,11.60
2023-04-24T03:54:20.853Z,11.60
2023-04-24T03:56:48.887Z,11.58
2023-04-24T03:59:17.721Z,11.58
2023-04-24T04:01:50.395Z,11.54
2023-04-24T04:04:19.089Z,11.56
2023-04-24T04:06:47.732Z,11.56
2023-04-24T04:09:15.992Z,11.55
2023-04-24T04:11:45.321Z,11.57
2023-04-24T04:14:13.821Z,11.56
2023-04-24T04:16:45.039Z,11.56
2023-04-24T04:19:13.522Z,11.56
2023-04-24T04:21:41.284Z,11.57
2023-04-24T04:24:21.597Z,11.56
2023-04-24T04:26:52.027Z,11.58
2023-04-24T04:29:26.959Z,11.55
2023-04-24T04:31:56.213Z,11.54
2023-04-24T04:34:24.507Z,11.55
2023-04-24T04:36:53.790Z,11.54
2023-04-24T04:39:37.013Z,11.53
2023-04-24T04:42:12.507Z,11.55
2023-04-24T04:44:43.738Z,11.52
2023-04-24T04:47:17.235Z,11.53
2023-04-24T04:49:45.658Z,11.53
2023-04-24T04:52:26.156Z,11.51
2023-04-24T04:54:59.869Z,11.49
2023-04-24T04:57:40.699Z,11.50
2023-04-24T05:00:11.441Z,11.49
2023-04-24T05:02:47.423Z,11.48
2023-04-24T05:05:16.066Z,11.48
2023-04-24T05:07:43.968Z,11.48
2023-04-24T05:10:12.279Z,11.48
2023-04-24T05:12:44.192Z,11.49
2023-04-24T05:15:13.445Z,11.22
2023-04-24T05:17:41.618Z,11.43
2023-04-24T05:20:10.727Z,11.46
2023-04-24T05:22:38.903Z,11.46
2023-04-24T05:25:07.336Z,11.45
2023-04-24T05:27:38.947Z,11.42
2023-04-24T05:30:29.633Z,11.43
2023-04-24T05:33:02.338Z,11.40
2023-04-24T05:35:31.918Z,11.40
2023-04-24T05:37:59.780Z,11.39
2023-04-24T05:40:28.313Z,11.36
2023-04-24T05:42:56.116Z,11.35
2023-04-24T05:45:28.036Z,11.33
2023-04-24T05:47:56.181Z,11.31
2023-04-24T05:50:24.154Z,11.29
2023-04-24T05:52:51.969Z,11.28
2023-04-24T05:55:26.378Z,11.27
2023-04-24T05:57:54.929Z,11.26
2023-04-24T06:00:23.057Z,11.25
2023-04-24T06:03:02.311Z,11.25
2023-04-24T06:05:31.199Z,11.23
2023-04-24T06:07:59.481Z,11.23
2023-04-24T06:10:32.003Z,11.20
2023-04-24T06:13:01.375Z,11.22
2023-04-24T06:15:31.978Z,11.20
2023-04-24T06:18:06.943Z,11.19
2023-04-24T06:20:35.549Z,11.19
2023-04-24T06:23:04.001Z,11.18
2023-04-24T06:25:34.752Z,11.16
2023-04-24T06:28:02.893Z,11.14
2023-04-24T06:30:31.906Z,11.13
2023-04-24T06:33:09.094Z,11.12
2023-04-24T06:35:42.717Z,11.11
2023-04-24T06:38:10.579Z,11.09
2023-04-24T06:40:39.706Z,11.09
2023-04-24T06:43:07.882Z,11.06
2023-04-24T06:45:36.062Z,11.05
2023-04-24T06:48:04.081Z,11.05
2023-04-24T06:50:32.112Z,11.04
2023-04-24T06:53:01.242Z,11.05
2023-04-24T06:55:29.116Z,11.03
2023-04-24T06:57:57.006Z,11.03
2023-04-24T07:00:25.779Z,11.03
2023-04-24T07:02:53.724Z,11.02
2023-04-24T07:05:21.931Z,11.01
2023-04-24T07:07:50.716Z,11.00
2023-04-24T07:10:21.084Z,10.99
2023-04-24T07:12:48.985Z,10.96
2023-04-24T07:15:17.233Z,10.94
2023-04-24T07:17:45.400Z,10.92
2023-04-24T07:20:15.439Z,10.89
2023-04-24T07:22:43.321Z,10.86
2023-04-24T07:25:11.406Z,10.84
2023-04-24T07:27:40.680Z,10.81
2023-04-24T07:30:09.691Z,10.78
2023-04-24T07:32:37.624Z,10.73
2023-04-24T07:35:05.966Z,10.69
2023-04-24T07:37:33.882Z,10.66
2023-04-24T07:40:01.707Z,10.62
2023-04-24T07:42:31.424Z,10.58
2023-04-24T07:45:01.058Z,10.55
2023-04-24T07:47:29.182Z,10.48
2023-04-24T07:49:57.063Z,10.42
2023-04-24T07:52:25.748Z,10.38
2023-04-24T07:54:59.265Z,10.31
2023-04-24T07:57:27.246Z,10.24
2023-04-24T07:59:55.155Z,10.19
2023-04-24T08:02:27.638Z,10.15
2023-04-24T08:04:55.877Z,10.07
2023-04-24T08:07:26.133Z,10.05
2023-04-24T08:09:54.141Z,10.00
2023-04-24T08:12:22.164Z,9.95
2023-04-24T08:14:50.067Z,9.89
2023-04-24T08:17:18.579Z,9.85
2023-04-24T08:19:49.522Z,9.81
2023-04-24T08:22:17.486Z,9.76
2023-04-24T08:24:45.649Z,9.74
2023-04-24T08:27:13.472Z,9.71
2023-04-24T08:29:41.434Z,9.68
2023-04-24T08:32:09.579Z,9.67
2023-04-24T08:34:37.648Z,9.65
2023-04-24T08:37:06.826Z,9.65
2023-04-24T08:39:34.736Z,9.61
2023-04-24T08:42:06.442Z,9.59
2023-04-24T08:44:34.710Z,9.60
2023-04-24T08:47:03.954Z,9.60
2023-04-24T08:49:32.323Z,9.60
2023-04-24T08:52:03.138Z,9.61
2023-04-24T08:54:33.497Z,9.61
2023-04-24T08:57:04.603Z,9.59
2023-04-24T08:59:33.578Z,9.59
2023-04-24T09:02:02.367Z,9.56
2023-04-24T09:04:31.586Z,9.57
2023-04-24T09:07:00.544Z,9.54
2023-04-24T09:09:34.702Z,9.54
2023-04-24T09:12:04.741Z,9.50
2023-04-24T09:14:34.126Z,9.49
2023-04-24T09:17:03.487Z,9.48
2023-04-24T09:19:31.602Z,9.46
2023-04-24T09:22:00.037Z,9.46
2023-04-24T09:24:28.030Z,9.46
2023-04-24T09:27:02.624Z,9.48
2023-04-24T09:29:31.053Z,9.44
2023-04-24T09:31:59.161Z,9.44
2023-04-24T09:34:28.585Z,9.44
2023-04-24T09:36:57.679Z,9.43
2023-04-24T09:39:25.908Z,9.43
2023-04-24T09:41:55.686Z,9.42
2023-04-24T09:44:29.065Z,9.40
2023-04-24T09:46:58.907Z,9.38
2023-04-24T09:49:28.976Z,9.38
2023-04-24T09:52:05.334Z,9.40
2023-04-24T09:54:34.169Z,9.37
2023-04-24T09:57:02.161Z,9.37
2023-04-24T09:59:31.956Z,9.39
2023-04-24T10:02:01.257Z,9.39
2023-04-24T10:04:31.241Z,9.41
2023-04-24T10:07:00.810Z,9.41
2023-04-24T10:09:29.171Z,9.42
2023-04-24T10:11:57.370Z,9.43
2023-04-24T10:14:26.894Z,9.45
2023-04-24T10:16:59.056Z,9.47
2023-04-24T10:19:28.719Z,9.44
2023-04-24T10:21:58.339Z,9.45
2023-04-24T10:24:26.767Z,9.47
2023-04-24T10:26:54.870Z,9.48
2023-04-24T10:29:23.445Z,9.48
2023-04-24T10:31:51.561Z,9.48
2023-04-24T10:34:23.802Z,9.52
2023-04-24T10:36:57.243Z,9.51
2023-04-24T10:39:27.668Z,9.53
2023-04-24T10:41:58.298Z,9.54
2023-04-24T10:44:26.589Z,9.55
2023-04-24T10:46:56.766Z,9.57
2023-04-24T10:49:32.394Z,9.61
2023-04-24T10:52:03.675Z,9.60
2023-04-24T10:54:37.658Z,9.61
2023-04-24T10:57:29.806Z,9.62
2023-04-24T11:00:16.500Z,9.62
2023-04-24T11:02:49.896Z,9.62
2023-04-24T11:05:19.662Z,9.66
2023-04-24T11:08:12.859Z,9.68
2023-04-24T11:10:42.147Z,9.68
2023-04-24T11:13:10.977Z,9.72
2023-04-24T11:15:43.232Z,9.75
2023-04-24T11:18:15.727Z,9.79
2023-04-24T11:20:46.873Z,9.78
2023-04-24T11:23:15.607Z,9.81
2023-04-24T11:25:43.846Z,9.81
2023-04-24T11:28:17.310Z,9.84
2023-04-24T11:30:45.451Z,9.83
2023-04-24T11:33:14.072Z,9.85
2023-04-24T11:35:42.753Z,9.88
2023-04-24T11:38:24.117Z,9.89
2023-04-24T11:40:53.985Z,9.89
2023-04-24T11:43:23.102Z,9.91
2023-04-24T11:45:51.757Z,9.93
2023-04-24T11:48:23.388Z,9.96
2023-04-24T11:50:51.994Z,9.95
2023-04-24T11:53:22.794Z,10.02
2023-04-24T11:55:50.749Z,10.04
2023-04-24T11:58:22.668Z,10.08
2023-04-24T12:00:58.513Z,10.09
2023-04-24T12:03:26.761Z,10.12
2023-04-24T12:05:55.043Z,10.14
2023-04-24T12:08:31.283Z,10.17
2023-04-24T12:11:00.293Z,10.16
2023-04-24T12:13:28.080Z,10.17
2023-04-24T12:15:56.781Z,10.18
2023-04-24T12:18:24.994Z,10.19
2023-04-24T12:20:52.788Z,10.22
2023-04-24T12:26:14.804Z,10.28
2023-04-24T12:28:42.732Z,10.30
2023-04-24T12:31:10.546Z,10.33
2023-04-24T12:33:39.693Z,10.35
2023-04-24T12:36:08.007Z,10.39
2023-04-24T12:38:41.590Z,10.40
2023-04-24T12:41:10.820Z,10.44
2023-04-24T12:43:41.099Z,10.47
2023-04-24T12:46:09.326Z,10.48
2023-04-24T12:48:37.266Z,10.50
2023-04-24T12:51:05.606Z,10.56
2023-04-24T12:53:33.459Z,10.58
2023-04-24T12:56:01.514Z,10.63
2023-04-24T12:58:29.349Z,10.66
2023-04-24T13:00:58.711Z,10.70
2023-04-24T13:03:26.737Z,10.72
2023-04-24T13:05:54.678Z,10.76
2023-04-24T13:08:22.719Z,10.78
2023-04-24T13:10:52.003Z,10.81
2023-04-24T13:13:19.907Z,10.83
2023-04-24T13:15:47.753Z,10.85
2023-04-24T13:18:17.009Z,10.91
2023-04-24T13:20:45.033Z,10.93
2023-04-24T13:23:12.974Z,10.94
2023-04-24T13:25:41.096Z,10.97
2023-04-24T13:28:08.934Z,10.99
2023-04-24T13:30:36.941Z,11.01
2023-04-24T13:33:05.066Z,11.03
2023-04-24T13:35:34.416Z,11.06
2023-04-24T13:38:06.895Z,11.07
2023-04-24T13:40:35.364Z,11.06
2023-04-24T13:43:03.755Z,11.10
2023-04-24T13:45:31.708Z,11.13
2023-04-24T13:47:59.604Z,11.16
2023-04-24T13:50:27.606Z,11.18
2023-04-24T13:52:57.760Z,11.21
2023-04-24T13:55:25.680Z,11.21
2023-04-24T13:57:56.029Z,11.24
2023-04-24T14:00:24.551Z,11.26
2023-04-24T14:02:52.528Z,11.29
2023-04-24T14:05:22.081Z,11.30
2023-04-24T14:07:50.023Z,11.31
2023-04-24T14:10:19.321Z,11.33
2023-04-24T14:12:47.306Z,11.32
2023-04-24T14:15:15.788Z,11.31
2023-04-24T14:17:43.747Z,11.32
2023-04-24T14:20:12.309Z,11.32
2023-04-24T14:22:40.195Z,11.32
2023-04-24T14:25:09.062Z,11.32
2023-04-24T14:27:38.298Z,11.32
2023-04-24T14:30:07.517Z,11.31
2023-04-24T14:32:35.431Z,11.30
2023-04-24T14:35:03.510Z,11.32
2023-04-24T14:37:31.346Z,11.32
2023-04-24T14:40:15.353Z,11.31
2023-04-24T14:42:48.601Z,11.31
2023-04-24T14:45:16.809Z,11.31
2023-04-24T14:47:44.819Z,11.31
2023-04-24T14:50:13.598Z,11.32
2023-04-24T14:52:41.631Z,11.31
2023-04-24T14:55:10.451Z,11.32
2023-04-24T14:57:38.719Z,11.32
2023-04-24T15:00:11.075Z,11.33
2023-04-24T15:02:42.922Z,11.31
2023-04-24T15:05:11.435Z,11.32
2023-04-24T15:07:39.790Z,11.34
2023-04-24T15:10:08.833Z,11.37
2023-04-24T15:12:36.851Z,11.38
2023-04-24T15:15:05.109Z,11.41
2023-04-24T15:17:34.754Z,11.44
2023-04-24T15:20:03.778Z,11.46
2023-04-24T15:22:31.611Z,11.48
2023-04-24T15:24:59.467Z,11.49
2023-04-24T15:27:27.373Z,11.51
2023-04-24T15:29:55.319Z,11.51
2023-04-24T15:32:23.180Z,11.52
2023-04-24T15:35:04.849Z,11.52
2023-04-24T15:37:36.310Z,11.51
2023-04-24T15:40:06.390Z,11.52
2023-04-24T15:42:34.429Z,11.52
2023-04-24T15:45:02.332Z,11.52
2023-04-24T15:47:30.656Z,11.53
2023-04-24T15:50:00.045Z,11.55
2023-04-24T15:52:28.020Z,11.54
2023-04-24T15:54:56.215Z,11.56
2023-04-24T15:57:24.179Z,11.56
2023-04-24T15:59:52.046Z,11.58
2023-04-24T16:02:20.875Z,11.58
2023-04-24T16:04:50.388Z,11.58
2023-04-24T16:07:19.930Z,11.60
2023-04-24T16:09:47.966Z,11.59
2023-04-24T16:12:15.982Z,11.60
2023-04-24T16:14:43.888Z,11.61
2023-04-24T16:17:11.952Z,11.62
2023-04-24T16:19:39.945Z,11.63
2023-04-24T16:22:08.000Z,11.62
2023-04-24T16:24:37.164Z,11.66
2023-04-24T16:27:05.179Z,11.63
2023-04-24T16:29:33.270Z,11.64
2023-04-24T16:32:01.275Z,11.63
2023-04-24T16:34:29.087Z,11.63
2023-04-24T16:36:57.393Z,11.62
2023-04-24T16:39:26.377Z,11.62
2023-04-24T16:41:58.403Z,11.63
2023-04-24T16:44:27.634Z,11.61
2023-04-24T16:46:55.708Z,11.60
2023-04-24T16:49:23.892Z,11.59
2023-04-24T16:51:51.862Z,11.58
2023-04-24T16:54:19.726Z,11.59
2023-04-24T16:56:47.606Z,11.58
2023-04-24T16:59:17.267Z,11.59
2023-04-24T17:01:45.142Z,11.57
2023-04-24T17:04:13.122Z,11.57
2023-04-24T17:06:41.212Z,11.56
2023-04-24T17:09:09.709Z,11.56
2023-04-24T17:11:37.607Z,11.55
2023-04-24T17:14:06.210Z,11.53
2023-04-24T17:16:35.492Z,11.55
2023-04-24T17:19:04.267Z,11.53
2023-04-24T17:21:32.930Z,11.51
2023-04-24T17:24:01.037Z,11.51
2023-04-24T17:26:31.281Z,11.50
2023-04-24T17:28:59.461Z,11.49
2023-04-24T17:31:27.353Z,11.47
2023-04-24T17:33:56.722Z,11.48
2023-04-24T17:36:25.051Z,11.46
2023-04-24T17:38:52.977Z,11.45
2023-04-24T17:41:21.530Z,11.43
2023-04-24T17:43:49.590Z,11.42
2023-04-24T17:46:17.765Z,11.40
2023-04-24T17:48:48.253Z,11.39
2023-04-24T17:51:18.826Z,11.38
2023-04-24T17:53:48.596Z,11.34
2023-04-24T17:56:16.518Z,11.32
2023-04-24T17:58:44.574Z,11.31
2023-04-24T18:01:12.482Z,11.28
2023-04-24T18:03:40.764Z,11.25
2023-04-24T18:06:10.240Z,11.25
2023-04-24T18:08:39.476Z,11.24
2023-04-24T18:11:07.497Z,11.20
2023-04-24T18:13:35.483Z,11.19
2023-04-24T18:16:04.038Z,11.17
2023-04-24T18:18:31.904Z,11.16
2023-04-24T18:20:59.830Z,11.14
2023-04-24T18:23:27.734Z,11.14
2023-04-24T18:25:57.070Z,11.13
2023-04-24T18:28:24.911Z,11.10
2023-04-24T18:30:53.017Z,11.09
2023-04-24T18:33:21.039Z,11.06
2023-04-24T18:35:49.586Z,11.05
2023-04-24T18:38:17.444Z,11.03
2023-04-24T18:40:45.513Z,11.02
2023-04-24T18:43:15.027Z,11.01
2023-04-24T18:45:42.932Z,10.98
2023-04-24T18:48:10.896Z,10.96
2023-04-24T18:50:40.759Z,10.95
2023-04-24T18:53:12.526Z,10.93
2023-04-24T18:55:40.976Z,10.91
2023-04-24T18:58:08.892Z,10.89
2023-04-24T19:00:38.611Z,10.91
2023-04-24T19:03:08.605Z,10.88
2023-04-24T19:05:36.710Z,10.86
2023-04-24T19:08:04.633Z,10.85
2023-04-24T19:10:34.374Z,10.83
2023-04-24T19:13:02.304Z,10.82
2023-04-24T19:15:30.794Z,10.81
2023-04-24T19:18:00.635Z,10.81
2023-04-24T19:20:28.601Z,10.79
2023-04-24T19:22:56.498Z,10.77
2023-04-24T19:25:24.615Z,10.75
2023-04-24T19:27:52.621Z,10.74
2023-04-24T19:30:20.628Z,10.72
2023-04-24T19:32:48.501Z,10.71
2023-04-24T19:35:17.825Z,10.70
2023-04-24T19:37:45.702Z,10.68
2023-04-24T19:40:13.960Z,10.66
2023-04-24T19:42:44.541Z,10.63
2023-04-24T19:45:13.401Z,10.62
2023-04-24T19:47:41.375Z,10.60
2023-04-24T19:50:09.597Z,10.58
2023-04-24T19:52:42.019Z,10.58
2023-04-24T19:55:11.014Z,10.52
2023-04-24T19:57:38.817Z,10.52
2023-04-24T20:00:08.490Z,10.50
2023-04-24T20:02:36.650Z,10.48
2023-04-24T20:05:05.121Z,10.47
2023-04-24T20:07:33.204Z,10.45
2023-04-24T20:10:02.497Z,10.43
2023-04-24T20:12:30.336Z,10.41
2023-04-24T20:14:58.317Z,10.39
2023-04-24T20:17:26.182Z,10.38
2023-04-24T20:19:54.099Z,10.35
2023-04-24T20:22:22.090Z,10.34
2023-04-24T20:24:50.525Z,10.31
2023-04-24T20:27:20.913Z,10.31
2023-04-24T20:29:48.800Z,10.29
2023-04-24T20:32:16.652Z,10.26
2023-04-24T20:34:44.541Z,10.26
2023-04-24T20:37:12.421Z,10.23
2023-04-24T20:39:40.323Z,10.21
2023-04-24T20:42:11.007Z,10.19
2023-04-24T20:44:41.784Z,10.18
2023-04-24T20:47:09.843Z,10.16
2023-04-24T20:49:37.661Z,10.14
2023-04-24T20:52:06.498Z,10.12
2023-04-24T20:54:34.421Z,10.09
2023-04-24T20:57:02.890Z,10.07
2023-04-24T20:59:30.804Z,10.06
2023-04-24T21:02:00.304Z,10.05
2023-04-24T21:04:28.198Z,10.01
2023-04-24T21:06:56.099Z,10.00
2023-04-24T21:09:23.974Z,9.99
2023-04-24T21:11:53.698Z,9.99
2023-04-24T21:14:21.626Z,9.95
2023-04-24T21:16:49.592Z,9.94
2023-04-24T21:19:18.819Z,9.94
2023-04-24T21:21:46.901Z,9.90
2023-04-24T21:24:15.698Z,9.88
2023-04-24T21:26:43.609Z,9.87
2023-04-24T21:29:11.495Z,9.84
2023-04-24T21:31:39.382Z,9.82
2023-04-24T21:34:07.327Z,9.81
2023-04-24T21:36:36.739Z,9.79
2023-04-24T21:39:04.697Z,9.76
2023-04-24T21:41:32.785Z,9.75
2023-04-24T21:44:00.666Z,9.73
2023-04-24T21:46:28.642Z,9.71
2023-04-24T21:48:56.559Z,9.70
2023-04-24T21:51:25.815Z,9.69
2023-04-24T21:53:55.059Z,9.69
2023-04-24T21:56:22.991Z,9.65
2023-04-24T21:58:50.986Z,9.63
2023-04-24T22:01:19.006Z,9.60
2023-04-24T22:03:47.236Z,9.58
2023-04-24T22:06:15.801Z,9.57
2023-04-24T22:08:47.320Z,9.54
2023-04-24T22:11:26.651Z,9.54
2023-04-24T22:13:55.550Z,9.50
2023-04-24T22:16:24.901Z,9.49
2023-04-24T22:18:55.295Z,9.46
2023-04-24T22:21:23.615Z,9.44
2023-04-24T22:23:51.788Z,9.43
2023-04-24T22:26:22.548Z,9.42
2023-04-24T22:28:50.772Z,9.41
2023-04-24T22:31:18.744Z,9.40
2023-04-24T22:33:47.964Z,9.39
2023-04-24T22:36:15.965Z,9.37
2023-04-24T22:38:43.901Z,9.36
2023-04-24T22:41:12.120Z,9.35
2023-04-24T22:43:41.628Z,9.35
2023-04-24T22:46:09.890Z,9.31
2023-04-24T22:48:37.947Z,9.29
2023-04-24T22:51:06.598Z,9.28
2023-04-24T22:53:36.443Z,9.27
2023-04-24T22:56:04.555Z,9.25
2023-04-24T22:58:33.065Z,9.22
2023-04-24T23:01:02.399Z,9.22
2023-04-24T23:03:31.714Z,9.21
2023-04-24T23:05:59.643Z,9.20
2023-04-24T23:08:27.479Z,9.19
2023-04-24T23:10:55.309Z,9.18
2023-04-24T23:13:23.192Z,9.17
2023-04-24T23:15:53.311Z,9.16
2023-04-24T23:18:23.844Z,9.17
2023-04-24T23:20:51.927Z,9.14
2023-04-24T23:23:20.100Z,9.13
2023-04-24T23:25:47.944Z,9.12
2023-04-24T23:28:16.015Z,9.11
2023-04-24T23:30:43.768Z,9.10
2023-04-24T23:33:11.775Z,9.08
2023-04-24T23:35:41.111Z,9.07
2023-04-24T23:38:08.999Z,9.06
2023-04-24T23:40:36.813Z,9.06
2023-04-24T23:43:07.879Z,9.04
2023-04-24T23:45:37.025Z,9.03
2023-04-24T23:48:05.886Z,9.01
2023-04-24T23:50:34.033Z,9.01
2023-04-24T23:53:03.503Z,9.00
2023-04-24T23:55:31.764Z,8.98
2023-04-24T23:57:59.558Z,8.97
